sensor_id;sensor_type;location;lat;lon;timestamp;pressure;altitude;pressure_sealevel;temperature;humidity
85499;BME280;75903;52.510;13.396;2024-03-02T00:01:39;100060.25;;;11.70;73.61
85499;BME280;75903;52.510;13.396;2024-03-02T00:04:05;100055.78;;;11.71;73.34
85499;BME280;75903;52.510;13.396;2024-03-02T00:06:32;100050.28;;;11.64;73.66
85499;BME280;75903;52.510;13.396;2024-03-02T00:08:58;100064.25;;;11.74;74.27
85499;BME280;75903;52.510;13.396;2024-03-02T00:11:24;100065.22;;;11.73;73.38
85499;BME280;75903;52.510;13.396;2024-03-02T00:13:52;100054.16;;;11.70;74.51
85499;BME280;75903;52.510;13.396;2024-03-02T00:16:18;100052.19;;;11.72;74.06
85499;BME280;75903;52.510;13.396;2024-03-02T00:18:43;100060.47;;;11.77;74.01
85499;BME280;75903;52.510;13.396;2024-03-02T00:21:09;100054.38;;;11.76;73.88
85499;BME280;75903;52.510;13.396;2024-03-02T00:23:35;100040.28;;;11.68;73.23
85499;BME280;75903;52.510;13.396;2024-03-02T00:26:01;100040.50;;;11.74;73.52
85499;BME280;75903;52.510;13.396;2024-03-02T00:28:27;100037.03;;;11.74;73.77
85499;BME280;75903;52.510;13.396;2024-03-02T00:33:35;100044.50;;;11.78;73.25
85499;BME280;75903;52.510;13.396;2024-03-02T00:36:02;100041.84;;;11.78;74.27
85499;BME280;75903;52.510;13.396;2024-03-02T00:38:29;100041.38;;;11.83;73.89
85499;BME280;75903;52.510;13.396;2024-03-02T00:40:56;100039.72;;;11.82;74.07
85499;BME280;75903;52.510;13.396;2024-03-02T00:43:39;100045.69;;;11.84;73.90
85499;BME280;75903;52.510;13.396;2024-03-02T00:46:06;100046.50;;;11.84;73.93
85499;BME280;75903;52.510;13.396;2024-03-02T00:48:32;100043.72;;;11.86;73.86
85499;BME280;75903;52.510;13.396;2024-03-02T00:51:01;100037.59;;;11.85;74.06
85499;BME280;75903;52.510;13.396;2024-03-02T00:53:29;100039.56;;;11.83;73.94
85499;BME280;75903;52.510;13.396;2024-03-02T00:55:55;100031.81;;;11.82;74.32
85499;BME280;75903;52.510;13.396;2024-03-02T00:58:21;100042.19;;;11.83;74.01
85499;BME280;75903;52.510;13.396;2024-03-02T01:00:46;100049.28;;;11.83;74.30
85499;BME280;75903;52.510;13.396;2024-03-02T01:03:12;100042.38;;;11.82;74.63
85499;BME280;75903;52.510;13.396;2024-03-02T01:05:41;100045.69;;;11.84;74.49
85499;BME280;75903;52.510;13.396;2024-03-02T01:08:07;100049.00;;;11.86;74.74
85499;BME280;75903;52.510;13.396;2024-03-02T01:10:33;100036.63;;;11.86;74.39
85499;BME280;75903;52.510;13.396;2024-03-02T01:12:58;100024.84;;;11.81;74.64
85499;BME280;75903;52.510;13.396;2024-03-02T01:15:23;100034.28;;;11.83;75.03
85499;BME280;75903;52.510;13.396;2024-03-02T01:17:49;100024.03;;;11.80;75.37
85499;BME280;75903;52.510;13.396;2024-03-02T01:20:14;100024.03;;;11.80;75.50
85499;BME280;75903;52.510;13.396;2024-03-02T01:22:40;100029.00;;;11.83;75.59
85499;BME280;75903;52.510;13.396;2024-03-02T01:25:05;100037.59;;;11.85;75.74
85499;BME280;75903;52.510;13.396;2024-03-02T01:27:31;100039.28;;;11.86;75.85
85499;BME280;75903;52.510;13.396;2024-03-02T01:29:56;100025.06;;;11.87;75.73
85499;BME280;75903;52.510;13.396;2024-03-02T01:32:21;100019.28;;;11.84;76.59
85499;BME280;75903;52.510;13.396;2024-03-02T01:34:47;100023.56;;;11.85;76.32
85499;BME280;75903;52.510;13.396;2024-03-02T01:37:12;100027.34;;;11.82;76.47
85499;BME280;75903;52.510;13.396;2024-03-02T01:39:39;100020.13;;;11.84;76.10
85499;BME280;75903;52.510;13.396;2024-03-02T01:42:04;100018.16;;;11.86;76.41
85499;BME280;75903;52.510;13.396;2024-03-02T01:44:30;100027.19;;;11.84;76.62
85499;BME280;75903;52.510;13.396;2024-03-02T01:46:55;100016.81;;;11.82;77.04
85499;BME280;75903;52.510;13.396;2024-03-02T01:49:20;100007.19;;;11.81;76.96
85499;BME280;75903;52.510;13.396;2024-03-02T01:51:46;100005.91;;;11.85;77.08
85499;BME280;75903;52.510;13.396;2024-03-02T01:54:11;100004.28;;;11.84;77.19
85499;BME280;75903;52.510;13.396;2024-03-02T01:56:37;100007.59;;;11.86;76.92
85499;BME280;75903;52.510;13.396;2024-03-02T01:59:02;100005.06;;;11.85;77.43
85499;BME280;75903;52.510;13.396;2024-03-02T02:01:28;100002.31;;;11.86;77.36
85499;BME280;75903;52.510;13.396;2024-03-02T02:03:54;99985.41;;;11.79;77.56
85499;BME280;75903;52.510;13.396;2024-03-02T02:06:19;99987.44;;;11.85;77.15
85499;BME280;75903;52.510;13.396;2024-03-02T02:08:44;99986.75;;;11.83;77.27
85499;BME280;75903;52.510;13.396;2024-03-02T02:11:10;99977.31;;;11.81;77.37
85499;BME280;75903;52.510;13.396;2024-03-02T02:13:36;99984.94;;;11.84;78.07
85499;BME280;75903;52.510;13.396;2024-03-02T02:16:08;99978.66;;;11.85;78.23
85499;BME280;75903;52.510;13.396;2024-03-02T02:18:34;99977.69;;;11.86;77.41
85499;BME280;75903;52.510;13.396;2024-03-02T02:20:59;99981.47;;;11.83;78.12
85499;BME280;75903;52.510;13.396;2024-03-02T02:23:25;99970.69;;;11.77;78.54
85499;BME280;75903;52.510;13.396;2024-03-02T02:25:50;99977.03;;;11.84;77.64
85499;BME280;75903;52.510;13.396;2024-03-02T02:28:15;99950.88;;;11.73;77.92
85499;BME280;75903;52.510;13.396;2024-03-02T02:30:41;99976.81;;;11.77;78.66
85499;BME280;75903;52.510;13.396;2024-03-02T02:33:06;99972.38;;;11.78;78.38
85499;BME280;75903;52.510;13.396;2024-03-02T02:35:32;99961.91;;;11.68;78.42
85499;BME280;75903;52.510;13.396;2024-03-02T02:37:58;99976.59;;;11.71;79.41
85499;BME280;75903;52.510;13.396;2024-03-02T02:40:26;99976.13;;;11.75;78.98
85499;BME280;75903;52.510;13.396;2024-03-02T02:42:52;99961.66;;;11.62;78.69
85499;BME280;75903;52.510;13.396;2024-03-02T02:45:17;99990.19;;;11.76;78.40
85499;BME280;75903;52.510;13.396;2024-03-02T02:47:43;99979.63;;;11.76;79.52
85499;BME280;75903;52.510;13.396;2024-03-02T02:50:11;99980.91;;;11.72;79.65
85499;BME280;75903;52.510;13.396;2024-03-02T02:52:38;99990.00;;;11.77;79.40
85499;BME280;75903;52.510;13.396;2024-03-02T02:55:06;99981.88;;;11.71;79.71
85499;BME280;75903;52.510;13.396;2024-03-02T02:57:33;99974.63;;;11.55;79.52
85499;BME280;75903;52.510;13.396;2024-03-02T03:00:05;99997.50;;;11.64;79.93
85499;BME280;75903;52.510;13.396;2024-03-02T03:02:35;99994.63;;;11.58;79.97
85499;BME280;75903;52.510;13.396;2024-03-02T03:05:00;99978.63;;;11.59;80.25
85499;BME280;75903;52.510;13.396;2024-03-02T03:07:26;99994.84;;;11.64;79.93
85499;BME280;75903;52.510;13.396;2024-03-02T03:09:51;99997.50;;;11.64;79.90
85499;BME280;75903;52.510;13.396;2024-03-02T03:12:16;99990.69;;;11.62;80.28
85499;BME280;75903;52.510;13.396;2024-03-02T03:14:42;99987.75;;;11.65;80.09
85499;BME280;75903;52.510;13.396;2024-03-02T03:17:07;99990.97;;;11.68;80.03
85499;BME280;75903;52.510;13.396;2024-03-02T03:19:33;99981.94;;;11.61;80.30
85499;BME280;75903;52.510;13.396;2024-03-02T03:21:58;99989.44;;;11.66;80.09
85499;BME280;75903;52.510;13.396;2024-03-02T03:24:24;99994.41;;;11.69;80.20
85499;BME280;75903;52.510;13.396;2024-03-02T03:26:49;99988.91;;;11.62;80.00
85499;BME280;75903;52.510;13.396;2024-03-02T03:29:14;99990.97;;;11.68;80.51
85499;BME280;75903;52.510;13.396;2024-03-02T03:31:40;99983.63;;;11.62;79.79
85499;BME280;75903;52.510;13.396;2024-03-02T03:34:05;99989.44;;;11.66;80.60
85499;BME280;75903;52.510;13.396;2024-03-02T03:36:31;99986.66;;;11.67;79.64
85499;BME280;75903;52.510;13.396;2024-03-02T03:38:56;99982.88;;;11.70;80.58
85499;BME280;75903;52.510;13.396;2024-03-02T03:41:22;99989.44;;;11.66;80.76
85499;BME280;75903;52.510;13.396;2024-03-02T03:43:48;99983.03;;;11.68;80.22
85499;BME280;75903;52.510;13.396;2024-03-02T03:46:13;99980.53;;;11.67;80.42
85499;BME280;75903;52.510;13.396;2024-03-02T03:48:38;99987.03;;;11.72;80.42
85499;BME280;75903;52.510;13.396;2024-03-02T03:51:04;99979.41;;;11.69;80.44
85499;BME280;75903;52.510;13.396;2024-03-02T03:53:29;99979.25;;;11.71;80.31
85499;BME280;75903;52.510;13.396;2024-03-02T03:55:55;99982.41;;;11.74;79.88
85499;BME280;75903;52.510;13.396;2024-03-02T03:58:20;99988.50;;;11.75;79.94
85499;BME280;75903;52.510;13.396;2024-03-02T04:00:46;99992.13;;;11.74;80.56
85499;BME280;75903;52.510;13.396;2024-03-02T04:03:11;99992.13;;;11.74;80.76
85499;BME280;75903;52.510;13.396;2024-03-02T04:05:37;99989.66;;;11.72;80.44
85499;BME280;75903;52.510;13.396;2024-03-02T04:08:03;99994.63;;;11.75;81.02
85499;BME280;75903;52.510;13.396;2024-03-02T04:10:29;99985.34;;;11.71;80.36
85499;BME280;75903;52.510;13.396;2024-03-02T04:12:55;99999.13;;;11.65;81.18
85499;BME280;75903;52.510;13.396;2024-03-02T04:15:21;99960.09;;;11.51;80.78
85499;BME280;75903;52.510;13.396;2024-03-02T04:17:48;100007.75;;;11.67;81.80
85499;BME280;75903;52.510;13.396;2024-03-02T04:20:13;100002.78;;;11.64;81.52
85499;BME280;75903;52.510;13.396;2024-03-02T04:22:39;100001.09;;;11.63;81.62
85499;BME280;75903;52.510;13.396;2024-03-02T04:25:04;100000.41;;;11.61;81.83
85499;BME280;75903;52.510;13.396;2024-03-02T04:27:31;99991.53;;;11.62;80.60
85499;BME280;75903;52.510;13.396;2024-03-02T04:29:57;99998.88;;;11.68;80.85
85499;BME280;75903;52.510;13.396;2024-03-02T04:32:23;99995.22;;;11.69;81.63
85499;BME280;75903;52.510;13.396;2024-03-02T04:34:48;99992.59;;;11.69;81.64
85499;BME280;75903;52.510;13.396;2024-03-02T04:37:13;99998.38;;;11.73;81.15
85499;BME280;75903;52.510;13.396;2024-03-02T04:39:39;100002.69;;;11.74;81.35
85499;BME280;75903;52.510;13.396;2024-03-02T04:42:05;99996.97;;;11.78;81.41
85499;BME280;75903;52.510;13.396;2024-03-02T04:44:30;100007.53;;;11.78;81.07
85499;BME280;75903;52.510;13.396;2024-03-02T04:46:56;100012.25;;;11.75;81.10
85499;BME280;75903;52.510;13.396;2024-03-02T04:49:21;100009.50;;;11.76;81.41
85499;BME280;75903;52.510;13.396;2024-03-02T04:51:46;100010.69;;;11.82;81.12
85499;BME280;75903;52.510;13.396;2024-03-02T04:54:12;100013.78;;;11.77;81.17
85499;BME280;75903;52.510;13.396;2024-03-02T04:56:39;100025.69;;;11.81;81.19
85499;BME280;75903;52.510;13.396;2024-03-02T04:59:11;100023.72;;;11.83;80.88
85499;BME280;75903;52.510;13.396;2024-03-02T05:01:36;100028.72;;;11.86;80.49
85499;BME280;75903;52.510;13.396;2024-03-02T05:04:02;100017.72;;;11.73;81.11
85499;BME280;75903;52.510;13.396;2024-03-02T05:06:27;100023.03;;;11.81;81.00
85499;BME280;75903;52.510;13.396;2024-03-02T05:08:53;100029.63;;;11.77;81.66
85499;BME280;75903;52.510;13.396;2024-03-02T05:11:18;100035.72;;;11.78;81.93
85499;BME280;75903;52.510;13.396;2024-03-02T05:14:02;100040.50;;;11.74;82.39
85499;BME280;75903;52.510;13.396;2024-03-02T05:16:28;100039.88;;;11.80;81.13
85499;BME280;75903;52.510;13.396;2024-03-02T05:18:53;100038.47;;;11.68;82.13
85499;BME280;75903;52.510;13.396;2024-03-02T05:21:19;100038.53;;;11.76;81.91
85499;BME280;75903;52.510;13.396;2024-03-02T05:23:44;100051.78;;;11.84;81.45
85499;BME280;75903;52.510;13.396;2024-03-02T05:26:09;100051.25;;;11.81;81.40
85499;BME280;75903;52.510;13.396;2024-03-02T05:28:38;100053.31;;;11.69;81.96
85499;BME280;75903;52.510;13.396;2024-03-02T05:31:03;100056.63;;;11.71;81.79
85499;BME280;75903;52.510;13.396;2024-03-02T05:33:29;100066.19;;;11.55;82.87
85499;BME280;75903;52.510;13.396;2024-03-02T05:35:56;100055.84;;;11.61;82.25
85499;BME280;75903;52.510;13.396;2024-03-02T05:38:22;100061.38;;;11.50;83.00
85499;BME280;75903;52.510;13.396;2024-03-02T05:40:47;100061.63;;;11.65;82.24
85499;BME280;75903;52.510;13.396;2024-03-02T05:43:13;100041.31;;;11.22;83.18
85499;BME280;75903;52.510;13.396;2024-03-02T05:45:38;100056.94;;;11.51;82.74
85499;BME280;75903;52.510;13.396;2024-03-02T05:48:08;100068.69;;;11.56;82.50
85499;BME280;75903;52.510;13.396;2024-03-02T05:50:34;100070.03;;;11.60;82.53
85499;BME280;75903;52.510;13.396;2024-03-02T05:52:59;100080.28;;;11.63;81.75
85499;BME280;75903;52.510;13.396;2024-03-02T05:55:25;100080.59;;;11.60;81.84
85499;BME280;75903;52.510;13.396;2024-03-02T05:57:50;100084.72;;;11.63;81.98
85499;BME280;75903;52.510;13.396;2024-03-02T06:00:41;100087.94;;;11.66;81.80
85499;BME280;75903;52.510;13.396;2024-03-02T06:03:07;100063.69;;;11.53;81.54
85499;BME280;75903;52.510;13.396;2024-03-02T06:05:34;100079.53;;;11.53;81.50
85499;BME280;75903;52.510;13.396;2024-03-02T06:08:00;100082.16;;;11.53;82.03
85499;BME280;75903;52.510;13.396;2024-03-02T06:10:25;100089.72;;;11.48;82.41
85499;BME280;75903;52.510;13.396;2024-03-02T06:12:51;100093.28;;;11.74;87.48
85499;BME280;75903;52.510;13.396;2024-03-02T06:15:16;100089.00;;;13.18;84.43
85499;BME280;75903;52.510;13.396;2024-03-02T06:17:42;100075.53;;;14.09;76.49
85499;BME280;75903;52.510;13.396;2024-03-02T06:20:08;100074.03;;;14.07;71.68
85499;BME280;75903;52.510;13.396;2024-03-02T06:22:34;100074.56;;;13.78;71.77
85499;BME280;75903;52.510;13.396;2024-03-02T06:25:00;100068.38;;;13.37;73.42
85499;BME280;75903;52.510;13.396;2024-03-02T06:27:25;100077.31;;;12.86;75.34
85499;BME280;75903;52.510;13.396;2024-03-02T06:29:50;100075.00;;;12.50;77.21
85499;BME280;75903;52.510;13.396;2024-03-02T06:32:16;100077.69;;;12.32;77.54
85499;BME280;75903;52.510;13.396;2024-03-02T06:34:42;100090.56;;;12.27;78.13
85499;BME280;75903;52.510;13.396;2024-03-02T06:37:07;100085.66;;;12.14;78.34
85499;BME280;75903;52.510;13.396;2024-03-02T06:39:32;100072.09;;;12.09;79.05
85499;BME280;75903;52.510;13.396;2024-03-02T06:42:00;100078.91;;;12.12;78.50
85499;BME280;75903;52.510;13.396;2024-03-02T06:44:25;100095.44;;;12.14;77.64
85499;BME280;75903;52.510;13.396;2024-03-02T06:46:50;100086.34;;;12.16;78.38
85499;BME280;75903;52.510;13.396;2024-03-02T06:49:16;100091.50;;;12.18;77.76
85499;BME280;75903;52.510;13.396;2024-03-02T06:51:46;100100.38;;;12.17;77.75
85499;BME280;75903;52.510;13.396;2024-03-02T06:54:11;100100.50;;;12.07;77.65
85499;BME280;75903;52.510;13.396;2024-03-02T06:56:36;100096.09;;;11.98;77.79
85499;BME280;75903;52.510;13.396;2024-03-02T06:59:03;100097.63;;;12.01;78.27
85499;BME280;75903;52.510;13.396;2024-03-02T07:01:29;100099.91;;;11.96;78.75
85499;BME280;75903;52.510;13.396;2024-03-02T07:03:54;100090.72;;;11.82;78.71
85499;BME280;75903;52.510;13.396;2024-03-02T07:06:19;100105.63;;;11.91;78.64
85499;BME280;75903;52.510;13.396;2024-03-02T07:08:45;100107.28;;;11.92;78.66
85499;BME280;75903;52.510;13.396;2024-03-02T07:11:10;100116.88;;;11.93;78.50
85499;BME280;75903;52.510;13.396;2024-03-02T07:13:36;100117.56;;;11.95;78.41
85499;BME280;75903;52.510;13.396;2024-03-02T07:16:02;100120.81;;;11.89;79.18
85499;BME280;75903;52.510;13.396;2024-03-02T07:18:27;100114.84;;;11.87;79.00
85499;BME280;75903;52.510;13.396;2024-03-02T07:20:52;100110.56;;;11.86;78.94
85499;BME280;75903;52.510;13.396;2024-03-02T07:23:18;100108.22;;;11.83;78.48
85499;BME280;75903;52.510;13.396;2024-03-02T07:25:44;100110.00;;;11.83;78.70
85499;BME280;75903;52.510;13.396;2024-03-02T07:28:10;100111.28;;;11.79;78.60
85499;BME280;75903;52.510;13.396;2024-03-02T07:30:35;100131.28;;;11.81;78.35
85499;BME280;75903;52.510;13.396;2024-03-02T07:33:03;100128.50;;;11.83;78.89
85499;BME280;75903;52.510;13.396;2024-03-02T07:35:29;100129.78;;;11.79;78.66
85499;BME280;75903;52.510;13.396;2024-03-02T07:37:57;100133.25;;;11.79;78.34
85499;BME280;75903;52.510;13.396;2024-03-02T07:40:22;100141.34;;;11.78;78.09
85499;BME280;75903;52.510;13.396;2024-03-02T07:42:48;100150.63;;;11.82;78.91
85499;BME280;75903;52.510;13.396;2024-03-02T07:45:13;100157.69;;;11.81;78.57
85499;BME280;75903;52.510;13.396;2024-03-02T07:47:39;100156.34;;;11.77;78.54
85499;BME280;75903;52.510;13.396;2024-03-02T07:50:05;100162.44;;;11.78;78.90
85499;BME280;75903;52.510;13.396;2024-03-02T07:52:32;100163.28;;;11.78;78.65
85499;BME280;75903;52.510;13.396;2024-03-02T07:54:57;100168.94;;;11.83;78.58
85499;BME280;75903;52.510;13.396;2024-03-02T07:57:22;100167.22;;;11.74;78.57
85499;BME280;75903;52.510;13.396;2024-03-02T07:59:48;100159.56;;;11.71;78.43
85499;BME280;75903;52.510;13.396;2024-03-02T08:02:14;100170.13;;;11.71;78.35
85499;BME280;75903;52.510;13.396;2024-03-02T08:04:40;100165.56;;;11.64;78.26
85499;BME280;75903;52.510;13.396;2024-03-02T08:07:06;100180.88;;;11.60;79.12
85499;BME280;75903;52.510;13.396;2024-03-02T08:09:31;100166.41;;;11.64;78.51
85499;BME280;75903;52.510;13.396;2024-03-02T08:11:56;100177.78;;;11.74;78.76
85499;BME280;75903;52.510;13.396;2024-03-02T08:14:23;100175.25;;;11.73;79.21
85499;BME280;75903;52.510;13.396;2024-03-02T08:16:49;100182.06;;;11.75;79.07
85499;BME280;75903;52.510;13.396;2024-03-02T08:19:14;100191.06;;;11.82;78.43
85499;BME280;75903;52.510;13.396;2024-03-02T08:21:40;100192.78;;;11.74;79.08
85499;BME280;75903;52.510;13.396;2024-03-02T08:24:06;100192.38;;;11.69;79.02
85499;BME280;75903;52.510;13.396;2024-03-02T08:26:31;100197.22;;;11.73;78.96
85499;BME280;75903;52.510;13.396;2024-03-02T08:28:58;100189.91;;;11.67;78.59
85499;BME280;75903;52.510;13.396;2024-03-02T08:31:24;100195.16;;;11.67;78.87
85499;BME280;75903;52.510;13.396;2024-03-02T08:33:49;100193.25;;;11.60;79.28
85499;BME280;75903;52.510;13.396;2024-03-02T08:36:15;100193.56;;;11.57;79.04
85499;BME280;75903;52.510;13.396;2024-03-02T08:38:41;100199.19;;;11.71;78.91
85499;BME280;75903;52.510;13.396;2024-03-02T08:41:06;100204.69;;;11.78;78.79
85499;BME280;75903;52.510;13.396;2024-03-02T08:43:32;100200.38;;;11.77;78.53
85499;BME280;75903;52.510;13.396;2024-03-02T08:45:58;100183.56;;;11.78;77.97
85499;BME280;75903;52.510;13.396;2024-03-02T08:48:23;100187.88;;;11.79;78.08
85499;BME280;75903;52.510;13.396;2024-03-02T08:50:49;100201.63;;;11.82;77.76
85499;BME280;75903;52.510;13.396;2024-03-02T08:53:14;100199.78;;;11.83;77.67
85499;BME280;75903;52.510;13.396;2024-03-02T08:55:45;100195.75;;;11.88;77.93
85499;BME280;75903;52.510;13.396;2024-03-02T08:58:10;100202.66;;;11.89;77.82
85499;BME280;75903;52.510;13.396;2024-03-02T09:00:35;100205.00;;;11.92;77.48
85499;BME280;75903;52.510;13.396;2024-03-02T09:03:01;100199.34;;;11.87;77.52
85499;BME280;75903;52.510;13.396;2024-03-02T09:05:26;100207.09;;;11.89;77.24
85499;BME280;75903;52.510;13.396;2024-03-02T09:07:51;100205.84;;;11.93;77.36
85499;BME280;75903;52.510;13.396;2024-03-02T09:10:17;100212.09;;;11.92;77.38
85499;BME280;75903;52.510;13.396;2024-03-02T09:12:42;100220.22;;;11.98;77.58
85499;BME280;75903;52.510;13.396;2024-03-02T09:15:08;100213.00;;;12.00;77.22
85499;BME280;75903;52.510;13.396;2024-03-02T09:17:33;100219.56;;;11.96;77.23
85499;BME280;75903;52.510;13.396;2024-03-02T09:19:59;100219.28;;;11.99;77.23
85499;BME280;75903;52.510;13.396;2024-03-02T09:22:24;100224.56;;;11.99;77.50
85499;BME280;75903;52.510;13.396;2024-03-02T09:24:49;100231.78;;;11.97;76.97
85499;BME280;75903;52.510;13.396;2024-03-02T09:27:15;100236.47;;;12.03;77.12
85499;BME280;75903;52.510;13.396;2024-03-02T09:29:40;100226.88;;;12.02;77.46
85499;BME280;75903;52.510;13.396;2024-03-02T09:32:06;100230.59;;;12.09;76.81
85499;BME280;75903;52.510;13.396;2024-03-02T09:34:32;100208.72;;;11.99;77.42
85499;BME280;75903;52.510;13.396;2024-03-02T09:36:58;100224.41;;;12.18;76.43
85499;BME280;75903;52.510;13.396;2024-03-02T09:39:23;100127.09;;;11.44;77.37
85499;BME280;75903;52.510;13.396;2024-03-02T09:41:50;100223.28;;;12.03;77.14
85499;BME280;75903;52.510;13.396;2024-03-02T09:44:16;100215.59;;;12.10;77.12
85499;BME280;75903;52.510;13.396;2024-03-02T09:46:41;100230.75;;;12.26;77.19
85499;BME280;75903;52.510;13.396;2024-03-02T09:49:10;100215.41;;;12.29;76.53
85499;BME280;75903;52.510;13.396;2024-03-02T09:51:37;100226.66;;;12.31;76.66
85499;BME280;75903;52.510;13.396;2024-03-02T09:54:02;100228.94;;;12.44;75.87
85499;BME280;75903;52.510;13.396;2024-03-02T09:56:28;100218.56;;;12.50;76.15
85499;BME280;75903;52.510;13.396;2024-03-02T09:58:53;100224.06;;;12.57;75.52
85499;BME280;75903;52.510;13.396;2024-03-02T10:01:19;100213.53;;;12.65;74.81
85499;BME280;75903;52.510;13.396;2024-03-02T10:03:44;100215.56;;;12.71;75.39
85499;BME280;75903;52.510;13.396;2024-03-02T10:06:21;100225.59;;;12.85;75.17
85499;BME280;75903;52.510;13.396;2024-03-02T10:08:47;100222.44;;;12.81;73.32
85499;BME280;75903;52.510;13.396;2024-03-02T10:11:34;100225.47;;;12.94;73.40
85499;BME280;75903;52.510;13.396;2024-03-02T10:14:11;100219.81;;;13.07;73.44
85499;BME280;75903;52.510;13.396;2024-03-02T10:16:42;100230.91;;;13.11;72.96
85499;BME280;75903;52.510;13.396;2024-03-02T10:19:22;100221.16;;;13.11;73.25
85499;BME280;75903;52.510;13.396;2024-03-02T10:21:52;100229.44;;;13.16;72.26
85499;BME280;75903;52.510;13.396;2024-03-02T10:24:20;100239.22;;;13.24;72.34
85499;BME280;75903;52.510;13.396;2024-03-02T10:26:46;100231.28;;;13.24;71.97
85499;BME280;75903;52.510;13.396;2024-03-02T10:29:12;100217.63;;;13.36;72.10
85499;BME280;75903;52.510;13.396;2024-03-02T10:31:38;100223.25;;;13.41;71.08
85499;BME280;75903;52.510;13.396;2024-03-02T10:34:05;100230.38;;;13.41;70.91
85499;BME280;75903;52.510;13.396;2024-03-02T10:36:34;100222.63;;;13.47;70.98
85499;BME280;75903;52.510;13.396;2024-03-02T10:39:04;100220.94;;;13.38;71.14
85499;BME280;75903;52.510;13.396;2024-03-02T10:41:37;100207.22;;;13.43;70.88
85499;BME280;75903;52.510;13.396;2024-03-02T10:44:04;100215.19;;;13.59;71.25
85499;BME280;75903;52.510;13.396;2024-03-02T10:46:31;100214.72;;;13.63;70.23
85499;BME280;75903;52.510;13.396;2024-03-02T10:48:58;100215.72;;;13.62;69.38
85499;BME280;75903;52.510;13.396;2024-03-02T10:51:27;100212.44;;;13.68;70.04
85499;BME280;75903;52.510;13.396;2024-03-02T10:53:59;100210.97;;;13.74;69.44
85499;BME280;75903;52.510;13.396;2024-03-02T10:59:12;100208.50;;;13.80;69.06
85499;BME280;75903;52.510;13.396;2024-03-02T11:01:42;100210.81;;;13.83;67.82
85499;BME280;75903;52.510;13.396;2024-03-02T11:04:08;100205.03;;;13.88;67.79
85499;BME280;75903;52.510;13.396;2024-03-02T11:06:35;100215.09;;;13.84;67.51
85499;BME280;75903;52.510;13.396;2024-03-02T11:09:07;100222.06;;;13.85;67.54
85499;BME280;75903;52.510;13.396;2024-03-02T11:11:40;100209.16;;;13.90;67.83
85499;BME280;75903;52.510;13.396;2024-03-02T11:14:12;100216.97;;;14.00;67.89
85499;BME280;75903;52.510;13.396;2024-03-02T11:16:38;100211.53;;;14.10;68.65
85499;BME280;75903;52.510;13.396;2024-03-02T11:19:15;100203.56;;;14.10;67.42
85499;BME280;75903;52.510;13.396;2024-03-02T11:21:42;100211.53;;;14.10;66.48
85499;BME280;75903;52.510;13.396;2024-03-02T11:27:05;100209.25;;;14.31;66.84
85499;BME280;75903;52.510;13.396;2024-03-02T11:32:06;100194.66;;;14.51;66.76
85499;BME280;75903;52.510;13.396;2024-03-02T11:34:38;100212.72;;;14.55;66.56
85499;BME280;75903;52.510;13.396;2024-03-02T11:37:05;100206.09;;;14.59;65.47
85499;BME280;75903;52.510;13.396;2024-03-02T11:39:31;100211.41;;;14.43;65.57
85499;BME280;75903;52.510;13.396;2024-03-02T11:41:57;100207.75;;;14.52;65.19
85499;BME280;75903;52.510;13.396;2024-03-02T11:44:24;100206.25;;;14.58;65.42
85499;BME280;75903;52.510;13.396;2024-03-02T11:47:00;100214.03;;;14.67;65.49
85499;BME280;75903;52.510;13.396;2024-03-02T11:49:54;100180.91;;;14.55;65.11
85499;BME280;75903;52.510;13.396;2024-03-02T11:52:20;100210.06;;;14.71;63.83
85499;BME280;75903;52.510;13.396;2024-03-02T11:54:46;100207.91;;;14.67;64.76
85499;BME280;75903;52.510;13.396;2024-03-02T11:57:13;100211.03;;;14.70;63.54
85499;BME280;75903;52.510;13.396;2024-03-02T11:59:40;100213.69;;;14.70;64.38
85499;BME280;75903;52.510;13.396;2024-03-02T12:02:06;100214.19;;;14.74;63.12
85499;BME280;75903;52.510;13.396;2024-03-02T12:04:31;100210.19;;;14.86;63.86
85499;BME280;75903;52.510;13.396;2024-03-02T12:06:58;100210.00;;;14.88;63.82
85499;BME280;75903;52.510;13.396;2024-03-02T12:09:29;100206.53;;;14.87;63.21
85499;BME280;75903;52.510;13.396;2024-03-02T12:12:13;100201.72;;;14.91;62.93
85499;BME280;75903;52.510;13.396;2024-03-02T12:14:52;100206.84;;;15.00;64.14
85499;BME280;75903;52.510;13.396;2024-03-02T12:17:21;100187.63;;;14.90;63.04
85499;BME280;75903;52.510;13.396;2024-03-02T12:19:46;100194.06;;;14.96;61.94
85499;BME280;75903;52.510;13.396;2024-03-02T12:22:12;100200.66;;;15.16;62.36
85499;BME280;75903;52.510;13.396;2024-03-02T12:24:38;100200.22;;;14.96;61.88
85499;BME280;75903;52.510;13.396;2024-03-02T12:27:04;100192.03;;;15.14;61.63
85499;BME280;75903;52.510;13.396;2024-03-02T12:29:30;100191.28;;;15.36;61.36
85499;BME280;75903;52.510;13.396;2024-03-02T12:31:56;100185.44;;;15.48;61.29
85499;BME280;75903;52.510;13.396;2024-03-02T12:34:22;100186.09;;;15.50;60.62
85499;BME280;75903;52.510;13.396;2024-03-02T12:36:48;100190.06;;;15.54;59.92
85499;BME280;75903;52.510;13.396;2024-03-02T12:39:21;100190.09;;;16.22;59.54
85499;BME280;75903;52.510;13.396;2024-03-02T12:41:51;100185.97;;;16.94;56.50
85499;BME280;75903;52.510;13.396;2024-03-02T12:44:17;100187.94;;;17.65;54.91
85499;BME280;75903;52.510;13.396;2024-03-02T12:46:46;100181.34;;;18.18;51.71
85499;BME280;75903;52.510;13.396;2024-03-02T12:49:13;100179.13;;;18.70;50.54
85499;BME280;75903;52.510;13.396;2024-03-02T12:51:40;100183.75;;;18.83;49.30